Time;durP1;ratioP1;P1;durP2;ratioP2;P2;SDS_P1;SDS_P2;PMS_P1;PMS_P2;Temp;Humidity;BMP_temperature;BMP_pressure;BME280_temperature;BME280_humidity;BME280_pressure;Samples;Min_cycle;Max_cycle;Signal;HPM_P1;HPM_P2
2021/08/04 00:01:47;;;;;;;5.17;4.00;;;17.30;99.90;;;;;;5077267;28;20862;-79
2021/08/04 00:04:13;;;;;;;4.50;4.13;;;17.30;99.90;;;;;;5078579;28;20369;-78
2021/08/04 00:06:39;;;;;;;6.17;4.43;;;17.20;99.90;;;;;;5077519;28;20393;-78
2021/08/04 00:09:05;;;;;;;4.60;4.20;;;17.20;99.90;;;;;;5078580;28;20365;-79
2021/08/04 00:11:31;;;;;;;5.22;4.72;;;17.20;99.90;;;;;;5082177;28;20870;-78
2021/08/04 00:13:56;;;;;;;5.07;4.57;;;17.20;99.90;;;;;;5080311;28;20373;-79
2021/08/04 00:16:22;;;;;;;5.97;4.83;;;17.10;99.90;;;;;;5081303;28;20422;-80
2021/08/04 00:18:48;;;;;;;4.75;4.35;;;17.10;99.90;;;;;;5082053;28;20776;-78
2021/08/04 00:21:13;;;;;;;5.73;5.13;;;17.00;99.90;;;;;;5079855;28;20715;-79
2021/08/04 00:23:39;;;;;;;5.28;4.78;;;17.10;99.90;;;;;;5081139;28;20949;-81
2021/08/04 00:26:04;;;;;;;6.07;5.47;;;17.00;99.90;;;;;;5071611;28;20382;-80
2021/08/04 00:28:30;;;;;;;5.50;5.00;;;17.00;99.90;;;;;;5070710;28;20798;-79
2021/08/04 00:30:56;;;;;;;5.82;4.95;;;17.00;99.90;;;;;;5052907;28;20450;-79
2021/08/04 00:33:21;;;;;;;5.87;4.97;;;17.00;99.90;;;;;;5070840;28;20401;-81
2021/08/04 00:35:47;;;;;;;5.72;5.22;;;16.90;99.90;;;;;;5070830;28;20898;-80
2021/08/04 00:38:13;;;;;;;6.03;5.30;;;17.00;99.90;;;;;;5052385;28;20394;-79
2021/08/04 00:40:40;;;;;;;5.83;5.17;;;16.90;99.90;;;;;;5069818;28;20473;-79
2021/08/04 00:43:07;;;;;;;5.40;4.90;;;16.90;99.90;;;;;;5071150;28;20377;-77
2021/08/04 00:45:36;;;;;;;6.38;5.78;;;16.80;99.90;;;;;;5071081;28;20405;-78
2021/08/04 00:48:03;;;;;;;5.97;5.40;;;16.70;99.90;;;;;;5071311;28;20378;-81
2021/08/04 00:50:29;;;;;;;6.38;5.78;;;16.70;99.90;;;;;;5071223;28;20880;-80
2021/08/04 00:52:56;;;;;;;6.72;5.50;;;16.70;99.90;;;;;;5071180;28;20435;-80
2021/08/04 00:55:23;;;;;;;7.95;5.70;;;16.60;99.90;;;;;;5071109;28;20772;-77
2021/08/04 00:57:48;;;;;;;6.50;5.90;;;16.60;99.90;;;;;;5070532;28;20422;-79
2021/08/04 01:00:14;;;;;;;6.35;5.72;;;16.60;99.90;;;;;;5070832;28;20433;-79
2021/08/04 01:02:50;;;;;;;7.67;6.27;;;16.60;99.90;;;;;;5070962;28;20377;-79
2021/08/04 01:05:21;;;;;;;6.13;5.63;;;16.50;99.90;;;;;;5052993;28;20401;-79
2021/08/04 01:07:57;;;;;;;6.05;5.55;;;16.50;99.90;;;;;;5052858;28;20465;-79
2021/08/04 01:10:32;;;;;;;5.40;4.90;;;16.50;99.90;;;;;;5070526;28;20786;-79
2021/08/04 01:13:13;;;;;;;6.32;5.68;;;16.60;99.90;;;;;;5070696;28;20755;-78
2021/08/04 01:15:46;;;;;;;6.63;6.03;;;16.60;99.90;;;;;;5070710;28;20380;-78
2021/08/04 01:18:21;;;;;;;6.30;5.80;;;16.60;99.90;;;;;;5070680;28;20457;-80
2021/08/04 01:20:47;;;;;;;6.22;5.63;;;16.50;99.90;;;;;;5070348;28;20402;-79
2021/08/04 01:23:33;;;;;;;6.88;6.10;;;16.50;99.90;;;;;;5052678;28;20439;-78
2021/08/04 01:26:35;;;;;;;6.72;5.70;;;16.50;99.90;;;;;;5052536;28;20397;-81
2021/08/04 01:29:01;;;;;;;7.60;6.57;;;16.50;99.90;;;;;;5070096;28;20416;-78
2021/08/04 01:31:30;;;;;;;5.88;5.43;;;16.50;99.90;;;;;;5070393;28;20366;-80
2021/08/04 01:33:58;;;;;;;7.25;6.20;;;16.50;99.90;;;;;;5052562;28;21179;-80
2021/08/04 01:36:25;;;;;;;6.65;6.05;;;16.50;99.90;;;;;;5052085;28;20370;-80
2021/08/04 01:38:52;;;;;;;6.57;5.97;;;16.50;99.90;;;;;;5070044;28;20424;-78
2021/08/04 01:41:19;;;;;;;6.85;6.15;;;16.40;99.90;;;;;;5070120;28;20740;-78
2021/08/04 01:43:46;;;;;;;7.30;6.00;;;16.40;99.90;;;;;;5052161;28;20425;-78
2021/08/04 01:46:14;;;;;;;7.10;6.40;;;16.40;99.90;;;;;;5070499;28;20371;-80
2021/08/04 01:48:41;;;;;;;7.10;6.50;;;16.40;99.90;;;;;;5069862;28;20378;-78
2021/08/04 01:51:09;;;;;;;7.18;6.43;;;16.40;99.90;;;;;;5070018;28;20366;-79
2021/08/04 01:53:35;;;;;;;7.53;6.75;;;16.30;99.90;;;;;;5069649;28;20457;-77
2021/08/04 01:56:01;;;;;;;7.20;6.47;;;16.40;99.90;;;;;;5069949;28;20362;-80
2021/08/04 01:58:27;;;;;;;7.82;6.30;;;16.30;99.90;;;;;;5069499;28;20733;-79
2021/08/04 02:00:53;;;;;;;7.25;6.63;;;16.30;99.90;;;;;;5069848;28;20408;-80
2021/08/04 02:03:18;;;;;;;7.45;6.57;;;16.40;99.90;;;;;;5069489;28;21175;-80
2021/08/04 02:05:46;;;;;;;6.87;6.17;;;16.30;99.90;;;;;;5069524;28;20404;-78
2021/08/04 02:08:26;;;;;;;7.20;6.50;;;16.30;99.90;;;;;;5069565;28;20374;-78
2021/08/04 02:11:05;;;;;;;7.70;6.90;;;16.30;99.90;;;;;;5069531;28;20382;-80
2021/08/04 02:13:56;;;;;;;6.75;6.03;;;16.30;99.90;;;;;;5069676;28;20385;-80
2021/08/04 02:16:36;;;;;;;7.57;6.65;;;16.30;99.90;;;;;;5069231;28;20448;-78
2021/08/04 02:19:18;;;;;;;8.07;7.28;;;16.30;99.90;;;;;;5069412;28;20417;-80
2021/08/04 02:21:50;;;;;;;7.67;7.00;;;16.30;99.90;;;;;;5069340;28;20872;-79
2021/08/04 02:24:17;;;;;;;7.70;6.97;;;16.30;99.90;;;;;;5068831;28;20374;-79
2021/08/04 02:26:45;;;;;;;7.60;6.90;;;16.20;99.90;;;;;;5069120;28;20463;-80
2021/08/04 02:29:13;;;;;;;7.57;6.87;;;16.30;99.90;;;;;;5051224;28;20374;-79
2021/08/04 02:31:41;;;;;;;7.30;6.60;;;16.30;99.90;;;;;;5068651;28;20457;-79
2021/08/04 02:34:07;;;;;;;6.60;6.00;;;16.30;99.90;;;;;;5068949;28;20389;-78
2021/08/04 02:36:32;;;;;;;7.30;6.60;;;16.20;99.90;;;;;;5069256;28;20888;-78
2021/08/04 02:39:01;;;;;;;7.20;6.50;;;16.20;99.90;;;;;;5051011;28;20402;-81
2021/08/04 02:41:29;;;;;;;7.32;6.63;;;16.30;99.90;;;;;;5069138;28;20917;-78
2021/08/04 02:43:55;;;;;;;8.18;7.38;;;16.30;99.90;;;;;;5069348;28;20384;-79
2021/08/04 02:46:22;;;;;;;7.73;7.03;;;16.20;99.90;;;;;;5068846;28;20721;-78
2021/08/04 02:48:48;;;;;;;7.68;6.97;;;16.20;99.90;;;;;;5068820;28;20370;-80
2021/08/04 02:51:16;;;;;;;7.80;7.00;;;16.20;99.90;;;;;;5068876;28;20414;-79
2021/08/04 02:53:41;;;;;;;7.30;6.70;;;16.10;99.90;;;;;;5050786;28;20893;-80
2021/08/04 02:56:07;;;;;;;7.80;6.90;;;16.10;99.90;;;;;;5068515;28;20370;-79
2021/08/04 02:58:37;;;;;;;7.60;6.90;;;16.10;99.90;;;;;;5068397;28;20398;-79
2021/08/04 03:01:06;;;;;;;7.03;6.43;;;16.10;99.90;;;;;;5068845;28;20386;-78
2021/08/04 03:03:33;;;;;;;8.15;6.65;;;16.10;99.90;;;;;;5068737;28;20370;-79
2021/08/04 03:05:59;;;;;;;7.10;6.40;;;16.10;99.90;;;;;;5050719;28;20375;-80
2021/08/04 03:08:24;;;;;;;7.68;6.78;;;16.10;99.90;;;;;;5068536;28;20378;-77
2021/08/04 03:10:50;;;;;;;7.53;6.30;;;16.00;99.90;;;;;;5068795;28;20749;-78
2021/08/04 03:13:15;;;;;;;8.05;6.70;;;16.00;99.90;;;;;;5068716;28;20394;-78
2021/08/04 03:15:41;;;;;;;7.37;6.67;;;16.10;99.90;;;;;;5068735;28;20741;-79
2021/08/04 03:18:07;;;;;;;7.20;6.50;;;16.00;99.90;;;;;;5068620;28;20406;-80
2021/08/04 03:20:32;;;;;;;7.10;6.40;;;16.00;99.90;;;;;;5068468;28;20401;-80
2021/08/04 03:22:58;;;;;;;7.20;6.53;;;16.00;99.90;;;;;;5068505;28;20956;-78
2021/08/04 03:25:23;;;;;;;7.50;6.80;;;16.00;99.90;;;;;;5068585;28;20381;-78
2021/08/04 03:27:49;;;;;;;7.57;6.87;;;16.00;99.90;;;;;;5068667;28;20371;-76
2021/08/04 03:30:15;;;;;;;7.55;6.85;;;16.00;99.90;;;;;;5068799;28;20370;-80
2021/08/04 03:32:41;;;;;;;7.03;6.43;;;16.00;99.90;;;;;;5068529;28;20488;-79
2021/08/04 03:35:08;;;;;;;6.85;6.25;;;16.00;99.90;;;;;;5069114;28;20433;-79
2021/08/04 03:37:34;;;;;;;6.80;6.07;;;16.00;99.90;;;;;;5068189;28;20381;-79
2021/08/04 03:39:59;;;;;;;7.38;6.43;;;16.00;99.90;;;;;;5068427;28;20406;-80
2021/08/04 03:42:25;;;;;;;9.35;6.30;;;16.00;99.90;;;;;;5068611;28;20508;-79
2021/08/04 03:44:51;;;;;;;6.83;6.03;;;16.00;99.90;;;;;;5071343;28;20739;-79
2021/08/04 03:47:16;;;;;;;8.02;6.57;;;16.00;99.90;;;;;;5072511;28;20370;-79
2021/08/04 03:49:42;;;;;;;7.28;6.57;;;16.00;99.90;;;;;;5072257;28;20382;-78
2021/08/04 03:52:08;;;;;;;6.70;6.10;;;16.10;99.90;;;;;;5072112;28;20374;-78
2021/08/04 03:54:33;;;;;;;6.93;5.72;;;16.00;99.90;;;;;;5072188;28;20370;-78
2021/08/04 03:56:59;;;;;;;7.13;6.10;;;16.10;99.90;;;;;;5072259;28;20374;-78
2021/08/04 03:59:24;;;;;;;6.60;5.93;;;16.10;99.90;;;;;;5071548;28;20416;-77
2021/08/04 04:01:50;;;;;;;6.40;5.80;;;16.10;99.90;;;;;;5072112;28;20428;-79
2021/08/04 04:04:16;;;;;;;5.97;5.40;;;16.20;99.90;;;;;;5072195;28;20377;-79
2021/08/04 04:06:41;;;;;;;5.97;5.37;;;16.10;99.90;;;;;;5071736;28;20958;-79
2021/08/04 04:09:07;;;;;;;6.43;5.72;;;16.20;99.90;;;;;;5072036;28;20763;-78
2021/08/04 04:11:32;;;;;;;6.63;5.93;;;16.20;99.90;;;;;;5072005;28;20898;-80
2021/08/04 04:13:58;;;;;;;14.68;5.93;;;16.20;99.90;;;;;;5072060;28;20802;-80
2021/08/04 04:16:23;;;;;;;6.03;5.33;;;16.20;99.90;;;;;;5071750;28;20851;-80
2021/08/04 04:18:49;;;;;;;6.50;5.20;;;16.20;99.90;;;;;;5071501;28;20374;-79
2021/08/04 04:21:15;;;;;;;5.80;5.00;;;16.20;99.90;;;;;;5071487;28;20851;-80
2021/08/04 04:23:41;;;;;;;7.10;4.68;;;16.30;99.90;;;;;;5072017;28;20436;-79
2021/08/04 04:26:07;;;;;;;5.20;4.70;;;16.30;99.90;;;;;;5071686;28;20370;-78
2021/08/04 04:28:32;;;;;;;5.57;5.03;;;16.30;99.90;;;;;;5071382;28;20396;-80
2021/08/04 04:30:58;;;;;;;6.07;4.90;;;16.40;99.90;;;;;;5071359;28;20385;-79
2021/08/04 04:33:23;;;;;;;6.65;4.80;;;16.40;99.90;;;;;;5071653;28;20373;-78
2021/08/04 04:35:49;;;;;;;11.77;5.23;;;16.40;99.90;;;;;;5072000;28;20990;-79
2021/08/04 04:38:15;;;;;;;6.13;4.80;;;16.50;99.90;;;;;;5071614;28;20374;-80
2021/08/04 04:40:41;;;;;;;7.00;4.60;;;16.50;99.90;;;;;;5053450;28;20402;-79
2021/08/04 04:43:06;;;;;;;6.50;5.27;;;16.60;99.90;;;;;;5071989;28;20389;-80
2021/08/04 04:45:32;;;;;;;6.88;4.95;;;16.70;99.90;;;;;;5071551;28;20451;-78
2021/08/04 04:47:57;;;;;;;6.67;5.30;;;16.60;99.90;;;;;;5052884;28;20397;-78
2021/08/04 04:50:23;;;;;;;5.63;5.07;;;16.70;99.90;;;;;;5069269;28;20382;-78
2021/08/04 04:52:48;;;;;;;7.20;4.63;;;16.70;99.90;;;;;;5069034;28;20795;-80
2021/08/04 04:55:14;;;;;;;5.30;4.43;;;16.80;99.90;;;;;;5070213;28;20393;-80
2021/08/04 04:57:40;;;;;;;5.60;4.20;;;16.80;99.90;;;;;;5069701;28;20932;-80
2021/08/04 05:00:07;;;;;;;4.60;4.20;;;16.80;99.90;;;;;;5070161;28;20402;-78
2021/08/04 05:02:37;;;;;;;5.72;4.43;;;16.90;99.90;;;;;;5052658;28;20386;-79
2021/08/04 05:05:03;;;;;;;4.88;4.13;;;16.90;99.90;;;;;;5070544;28;20380;-78
2021/08/04 05:07:29;;;;;;;4.82;3.95;;;16.90;99.90;;;;;;5070889;28;20389;-79
2021/08/04 05:09:54;;;;;;;9.33;4.57;;;17.00;99.90;;;;;;5053022;28;20378;-79
2021/08/04 05:12:20;;;;;;;6.80;4.13;;;17.10;99.90;;;;;;5071128;28;20405;-77
2021/08/04 05:14:45;;;;;;;6.47;4.40;;;17.10;99.90;;;;;;5071101;28;20502;-79
2021/08/04 05:17:13;;;;;;;6.03;4.10;;;17.10;99.90;;;;;;5070663;28;20412;-80
2021/08/04 05:19:39;;;;;;;6.85;4.43;;;17.10;99.90;;;;;;5070658;28;20409;-79
2021/08/04 05:22:04;;;;;;;19.27;5.43;;;17.30;99.90;;;;;;5070577;28;20428;-77
2021/08/04 05:24:30;;;;;;;4.30;3.90;;;17.30;99.90;;;;;;5052693;28;20390;-79
2021/08/04 05:26:55;;;;;;;6.75;4.78;;;17.40;99.90;;;;;;5070653;28;20381;-80
2021/08/04 05:29:21;;;;;;;7.00;4.87;;;17.40;99.90;;;;;;5070213;28;20375;-79
2021/08/04 05:31:47;;;;;;;6.38;4.65;;;17.50;99.90;;;;;;5070270;28;20366;-80
2021/08/04 05:34:12;;;;;;;5.30;4.60;;;17.50;99.90;;;;;;5069967;28;20378;-77
2021/08/04 05:36:38;;;;;;;8.88;4.90;;;17.50;99.90;;;;;;5070882;28;20373;-78
2021/08/04 05:39:04;;;;;;;5.97;4.53;;;17.60;99.90;;;;;;5070226;28;20393;-81
2021/08/04 05:41:29;;;;;;;8.05;5.05;;;17.60;99.90;;;;;;5052156;28;20891;-81
2021/08/04 05:43:55;;;;;;;6.60;4.47;;;17.70;99.90;;;;;;5071026;28;20378;-78
2021/08/04 05:46:21;;;;;;;7.20;4.55;;;17.90;99.90;;;;;;5070282;28;20382;-80
2021/08/04 05:48:46;;;;;;;9.10;4.90;;;17.90;99.90;;;;;;5070426;28;20366;-78
2021/08/04 05:51:12;;;;;;;4.90;4.18;;;18.00;99.90;;;;;;5070895;28;20857;-79
2021/08/04 05:53:37;;;;;;;5.10;4.30;;;18.10;99.90;;;;;;5070928;28;20472;-78
2021/08/04 05:56:03;;;;;;;6.45;4.70;;;18.30;99.90;;;;;;5070801;28;20406;-78
2021/08/04 05:58:28;;;;;;;7.23;4.27;;;18.40;99.90;;;;;;5070445;28;20884;-78
2021/08/04 06:00:54;;;;;;;5.53;4.47;;;18.50;99.90;;;;;;5071146;28;20401;-78
2021/08/04 06:03:20;;;;;;;5.27;4.50;;;18.60;99.90;;;;;;5070845;28;20374;-79
2021/08/04 06:05:45;;;;;;;4.72;4.10;;;18.80;99.90;;;;;;5052779;28;20406;-80
2021/08/04 06:08:11;;;;;;;4.60;3.90;;;18.90;99.90;;;;;;5070006;28;20933;-81
2021/08/04 06:10:37;;;;;;;5.77;4.60;;;19.10;99.90;;;;;;5070991;28;20880;-80
2021/08/04 06:13:03;;;;;;;5.93;4.37;;;19.20;99.90;;;;;;5052531;28;20732;-80
2021/08/04 06:15:29;;;;;;;6.22;3.88;;;19.30;99.90;;;;;;5070541;28;20370;-80
2021/08/04 06:17:55;;;;;;;11.00;4.47;;;19.30;99.90;;;;;;5051840;28;20374;-79
2021/08/04 06:20:20;;;;;;;5.80;4.13;;;19.30;99.90;;;;;;5069355;28;20398;-80
2021/08/04 06:22:46;;;;;;;6.60;4.73;;;19.50;99.90;;;;;;5069967;28;20440;-79
2021/08/04 06:25:12;;;;;;;5.68;4.40;;;19.60;99.90;;;;;;5070084;28;20379;-81
2021/08/04 06:27:38;;;;;;;6.87;4.20;;;19.60;99.90;;;;;;5070174;28;20375;-81
2021/08/04 06:30:05;;;;;;;5.37;4.40;;;19.70;99.90;;;;;;5070255;28;20541;-80
2021/08/04 06:32:30;;;;;;;5.88;4.00;;;19.80;99.90;;;;;;5070147;28;20382;-80
2021/08/04 06:34:56;;;;;;;6.80;4.70;;;19.90;99.90;;;;;;5069282;28;20382;-79
2021/08/04 06:37:21;;;;;;;4.55;4.15;;;20.00;99.90;;;;;;5069572;28;20380;-79
2021/08/04 06:39:47;;;;;;;6.70;4.47;;;20.20;99.90;;;;;;5070105;28;20405;-79
2021/08/04 06:42:13;;;;;;;5.80;4.40;;;20.20;99.90;;;;;;5070085;28;20891;-80
2021/08/04 06:44:40;;;;;;;4.90;4.30;;;20.20;99.90;;;;;;5069036;28;20362;-79
2021/08/04 06:47:06;;;;;;;5.70;4.53;;;20.20;99.90;;;;;;5069278;28;20374;-80
2021/08/04 06:49:32;;;;;;;8.43;4.50;;;20.20;99.90;;;;;;5069241;28;20778;-78
2021/08/04 06:51:58;;;;;;;5.60;4.38;;;20.30;99.90;;;;;;5069886;28;20859;-80
2021/08/04 06:54:24;;;;;;;7.93;4.80;;;20.50;99.90;;;;;;5070361;28;20457;-78
2021/08/04 06:56:50;;;;;;;6.45;5.00;;;20.50;99.90;;;;;;5053378;28;20799;-79
2021/08/04 06:59:16;;;;;;;7.13;4.75;;;20.50;99.90;;;;;;5069870;28;20479;-80
2021/08/04 07:01:44;;;;;;;6.70;4.70;;;20.50;99.90;;;;;;5071201;28;20370;-81
2021/08/04 07:04:11;;;;;;;5.57;4.80;;;20.50;99.90;;;;;;5070435;28;20374;-79
2021/08/04 07:06:37;;;;;;;5.55;4.35;;;20.60;99.90;;;;;;5051717;28;20427;-81
2021/08/04 07:09:03;;;;;;;6.40;5.00;;;20.60;99.90;;;;;;5052503;28;20396;-79
2021/08/04 07:11:29;;;;;;;7.40;4.70;;;20.50;99.90;;;;;;5052545;28;20388;-81
2021/08/04 07:14:00;;;;;;;49.33;7.97;;;20.50;99.90;;;;;;5050644;28;20888;-79
2021/08/04 07:16:25;;;;;;;5.97;4.57;;;20.50;99.90;;;;;;5050674;28;20422;-78
2021/08/04 07:18:51;;;;;;;6.60;4.70;;;20.60;99.90;;;;;;5070962;28;20899;-78
2021/08/04 07:21:17;;;;;;;4.63;4.20;;;20.70;99.90;;;;;;5088874;28;20494;-79
2021/08/04 07:23:46;;;;;;;6.80;4.83;;;20.70;99.90;;;;;;5102777;28;20386;-77
2021/08/04 07:26:12;;;;;;;4.70;4.30;;;20.70;99.90;;;;;;5066890;28;20382;-77
2021/08/04 07:28:38;;;;;;;6.30;4.60;;;20.80;99.90;;;;;;5073983;28;20380;-81
2021/08/04 07:31:03;;;;;;;7.17;4.87;;;20.70;99.90;;;;;;5087921;28;20384;-80
2021/08/04 07:33:29;;;;;;;5.43;4.70;;;20.80;99.90;;;;;;5092367;28;20396;-78
2021/08/04 07:35:58;;;;;;;5.97;4.50;;;21.00;99.90;;;;;;5088269;28;20433;-81
2021/08/04 07:38:24;;;;;;;8.77;5.20;;;21.10;99.90;;;;;;5075420;28;20396;-78
2021/08/04 07:40:49;;;;;;;6.33;5.00;;;21.20;99.90;;;;;;5076546;28;20392;-79
2021/08/04 07:43:16;;;;;;;8.50;4.72;;;21.10;99.90;;;;;;5076654;28;20405;-79
2021/08/04 07:45:42;;;;;;;7.50;5.00;;;21.30;99.90;;;;;;5073467;28;20386;-78
2021/08/04 07:48:07;;;;;;;5.10;4.60;;;21.30;99.90;;;;;;5076958;28;20805;-80
2021/08/04 07:50:33;;;;;;;14.23;5.28;;;21.50;99.90;;;;;;5074393;28;20376;-80
2021/08/04 07:52:58;;;;;;;6.10;5.10;;;21.40;99.90;;;;;;5092090;28;20936;-78
2021/08/04 07:55:24;;;;;;;7.05;4.93;;;21.40;99.90;;;;;;5092748;28;20372;-81
2021/08/04 07:57:50;;;;;;;8.27;5.03;;;21.30;99.90;;;;;;5092567;28;20470;-80
2021/08/04 08:00:16;;;;;;;5.50;4.63;;;21.40;99.90;;;;;;5075315;28;20411;-80
2021/08/04 08:02:41;;;;;;;5.68;5.10;;;21.40;99.90;;;;;;5081716;28;20469;-81
2021/08/04 08:05:08;;;;;;;8.25;5.03;;;21.40;99.90;;;;;;5072613;28;20822;-80
2021/08/04 08:07:33;;;;;;;14.95;5.57;;;21.60;99.90;;;;;;5071433;28;20374;-81
2021/08/04 08:09:59;;;;;;;6.03;4.93;;;22.00;99.90;;;;;;5086298;28;20744;-80
2021/08/04 08:12:25;;;;;;;5.78;5.20;;;22.10;99.90;;;;;;5099508;28;20385;-81
2021/08/04 08:14:50;;;;;;;5.45;4.82;;;22.20;99.90;;;;;;5099369;28;20546;-79
2021/08/04 08:17:16;;;;;;;80.03;11.90;;;22.20;99.90;;;;;;5100232;28;20367;-80
2021/08/04 08:19:42;;;;;;;12.25;5.55;;;22.20;99.90;;;;;;5097804;28;20402;-77
2021/08/04 08:22:07;;;;;;;6.83;4.40;;;22.30;99.90;;;;;;5099573;28;21653;-80
2021/08/04 08:24:33;;;;;;;9.23;5.20;;;22.50;99.90;;;;;;5100559;28;20383;-78
2021/08/04 08:26:59;;;;;;;9.73;5.35;;;22.40;99.90;;;;;;5099631;28;20385;-79
2021/08/04 08:29:25;;;;;;;6.73;4.77;;;22.40;99.90;;;;;;5098456;28;20376;-80
2021/08/04 08:31:50;;;;;;;12.30;4.77;;;22.60;99.90;;;;;;5099217;28;20372;-80
2021/08/04 08:34:16;;;;;;;6.32;5.18;;;22.70;99.90;;;;;;5099269;28;20379;-80
2021/08/04 08:36:42;;;;;;;5.40;4.90;;;22.60;99.90;;;;;;5099889;28;20495;-80
2021/08/04 08:39:10;;;;;;;5.93;4.90;;;22.10;99.90;;;;;;5098643;28;20373;-80
2021/08/04 08:41:36;;;;;;;7.20;5.28;;;22.10;99.90;;;;;;5096081;28;20445;-76
2021/08/04 08:44:02;;;;;;;6.68;5.35;;;22.20;99.90;;;;;;5098982;28;20850;-80
2021/08/04 08:46:31;;;;;;;6.30;5.07;;;22.10;99.90;;;;;;5097881;28;20890;-81
2021/08/04 08:48:57;;;;;;;124.18;15.48;;;21.80;99.90;;;;;;5094747;28;20384;-78
2021/08/04 08:51:25;;;;;;;8.15;5.53;;;21.80;99.90;;;;;;5097180;28;20389;-79
2021/08/04 08:53:51;;;;;;;20.58;5.85;;;21.70;99.90;;;;;;5081295;28;20467;-78
2021/08/04 08:56:18;;;;;;;6.78;4.90;;;21.80;99.90;;;;;;5080639;28;20457;-80
2021/08/04 08:58:49;;;;;;;6.45;5.50;;;21.60;99.90;;;;;;5099455;28;20823;-79
2021/08/04 09:01:15;;;;;;;5.95;4.90;;;22.00;99.90;;;;;;5093193;28;20483;-78
2021/08/04 09:03:41;;;;;;;5.53;4.40;;;22.10;99.90;;;;;;5079584;28;20432;-79
2021/08/04 09:06:07;;;;;;;6.35;4.43;;;22.30;99.90;;;;;;5073009;28;20382;-79
2021/08/04 09:11:20;;;;;;;5.32;4.47;;;22.50;99.90;;;;;;5083658;28;20935;-79
2021/08/04 09:13:47;;;;;;;7.07;4.10;;;22.30;99.90;;;;;;5075105;28;20385;-79
2021/08/04 09:16:15;;;;;;;4.95;4.15;;;22.20;99.90;;;;;;5094395;28;20375;-80
2021/08/04 09:18:51;;;;;;;4.45;3.83;;;22.50;99.90;;;;;;5093664;28;20368;-80
2021/08/04 09:21:18;;;;;;;5.60;3.90;;;22.50;99.90;;;;;;5093019;28;20440;-78
2021/08/04 09:23:55;;;;;;;6.53;4.10;;;22.80;99.90;;;;;;5092439;28;20379;-79
2021/08/04 09:26:25;;;;;;;4.93;3.70;;;23.00;99.90;;;;;;5090831;28;20865;-79
2021/08/04 09:29:06;;;;;;;5.80;3.72;;;23.10;99.90;;;;;;5090056;28;20419;-78
2021/08/04 09:31:40;;;;;;;4.70;3.88;;;23.10;99.90;;;;;;5091091;28;20396;-81
2021/08/04 09:34:29;;;;;;;4.57;3.90;;;22.80;99.90;;;;;;5091147;28;20372;-77
2021/08/04 09:37:07;;;;;;;3.97;3.53;;;22.50;99.90;;;;;;5087826;28;20420;-79
2021/08/04 09:39:35;;;;;;;5.85;3.60;;;22.50;99.90;;;;;;5057656;28;20501;-79
2021/08/04 09:42:01;;;;;;;5.97;4.10;;;22.50;99.90;;;;;;5062815;28;20367;-77
2021/08/04 09:44:27;;;;;;;5.18;4.07;;;22.70;99.90;;;;;;5085813;28;20372;-79
2021/08/04 09:47:11;;;;;;;6.82;4.00;;;22.90;99.90;;;;;;5087293;28;20373;-80
2021/08/04 09:49:37;;;;;;;5.05;3.65;;;23.30;99.90;;;;;;5084595;28;20369;-77
2021/08/04 09:52:05;;;;;;;4.03;3.63;;;23.60;99.90;;;;;;5090377;28;20412;-80
2021/08/04 09:54:42;;;;;;;3.58;3.28;;;23.60;99.90;;;;;;5096253;28;20385;-78
2021/08/04 09:57:09;;;;;;;7.40;3.60;;;23.90;99.90;;;;;;5087546;28;20376;-80
2021/08/04 09:59:35;;;;;;;3.72;3.33;;;24.00;99.90;;;;;;5079800;28;20407;-79
2021/08/04 10:02:02;;;;;;;4.70;3.40;;;24.10;99.90;;;;;;5089985;28;20388;-80
2021/08/04 10:04:28;;;;;;;4.10;3.63;;;24.00;99.90;;;;;;5090892;28;20392;-81
2021/08/04 10:07:09;;;;;;;3.80;3.40;;;24.00;99.90;;;;;;5090657;28;20380;-80
2021/08/04 10:09:36;;;;;;;4.00;3.13;;;24.20;99.90;;;;;;5072606;28;20377;-80
2021/08/04 10:12:04;;;;;;;5.15;3.50;;;24.40;99.90;;;;;;5079987;28;20369;-81
2021/08/04 10:14:30;;;;;;;4.53;3.40;;;24.70;99.90;;;;;;5077942;28;20488;-81
2021/08/04 10:16:57;;;;;;;8.98;3.30;;;25.00;99.90;;;;;;5088085;28;20416;-80
2021/08/04 10:19:25;;;;;;;5.53;3.45;;;25.20;99.90;;;;;;5094760;28;20403;-80
2021/08/04 10:21:53;;;;;;;4.20;3.45;;;25.50;99.90;;;;;;5073653;28;20894;-81
2021/08/04 10:24:20;;;;;;;10.07;3.47;;;25.50;99.90;;;;;;5094572;28;20369;-80
2021/08/04 10:26:48;;;;;;;6.20;3.38;;;25.60;99.90;;;;;;5095307;28;20358;-81
2021/08/04 10:29:14;;;;;;;20.33;4.70;;;25.50;99.90;;;;;;5093139;28;20422;-81
2021/08/04 10:31:42;;;;;;;3.80;3.40;;;25.60;99.90;;;;;;5092135;28;20386;-79
2021/08/04 10:34:09;;;;;;;4.18;3.20;;;25.50;99.90;;;;;;5089723;28;20380;-81
2021/08/04 10:36:41;;;;;;;4.33;3.60;;;25.50;99.90;;;;;;5081467;28;20372;-79
2021/08/04 10:39:10;;;;;;;4.90;3.35;;;25.60;99.90;;;;;;5078085;28;20384;-82
2021/08/04 10:41:38;;;;;;;4.05;3.50;;;25.20;99.90;;;;;;5074952;28;20759;-79
2021/08/04 10:44:06;;;;;;;4.47;3.40;;;24.90;99.90;;;;;;5073765;28;20890;-80
2021/08/04 10:46:32;;;;;;;3.90;3.20;;;25.10;99.90;;;;;;5097062;28;20370;-81
2021/08/04 10:49:03;;;;;;;162.50;18.08;;;25.10;99.90;;;;;;5076566;28;20398;-78
2021/08/04 10:51:31;;;;;;;4.38;3.05;;;25.30;99.90;;;;;;5096120;28;20390;-78
2021/08/04 10:54:02;;;;;;;9.40;3.30;;;25.80;99.90;;;;;;5097461;28;20904;-80
2021/08/04 10:56:34;;;;;;;9.68;3.50;;;26.20;99.90;;;;;;5094706;28;20544;-78
2021/08/04 10:59:27;;;;;;;7.38;3.40;;;26.40;99.90;;;;;;5086283;28;20395;-78
2021/08/04 11:02:14;;;;;;;4.28;3.42;;;26.60;99.90;;;;;;5073432;28;20388;-79
2021/08/04 11:04:43;;;;;;;4.15;3.30;;;26.30;99.90;;;;;;5048964;28;20746;-80
2021/08/04 11:07:12;;;;;;;4.47;3.07;;;25.60;99.90;;;;;;5075288;28;20396;-80
2021/08/04 11:09:46;;;;;;;5.05;3.28;;;25.00;99.90;;;;;;5072191;28;20390;-79
2021/08/04 11:12:17;;;;;;;32.03;4.95;;;24.90;99.90;;;;;;5073151;28;20453;-78
2021/08/04 11:14:47;;;;;;;4.93;3.15;;;25.30;99.90;;;;;;5057573;28;20382;-79
2021/08/04 11:17:18;;;;;;;6.50;4.00;;;25.20;99.90;;;;;;5078017;28;20394;-81
2021/08/04 11:22:31;;;;;;;4.22;3.58;;;24.90;99.90;;;;;;5094994;28;20391;-80
2021/08/04 11:25:03;;;;;;;5.90;3.60;;;24.60;99.90;;;;;;5077215;28;20378;-79
2021/08/04 11:27:36;;;;;;;5.80;3.90;;;24.50;99.90;;;;;;5075259;28;20526;-80
2021/08/04 11:30:03;;;;;;;6.77;3.67;;;24.40;99.90;;;;;;5096948;28;20431;-83
2021/08/04 11:32:31;;;;;;;8.18;3.30;;;24.60;99.90;;;;;;5094908;28;20388;-81
2021/08/04 11:35:13;;;;;;;4.97;3.40;;;24.40;99.90;;;;;;5092046;28;20899;-79
2021/08/04 11:37:43;;;;;;;7.05;3.45;;;23.90;99.90;;;;;;5071332;28;20897;-79
2021/08/04 11:40:09;;;;;;;6.10;3.07;;;23.60;99.90;;;;;;5076632;28;20753;-81
2021/08/04 11:42:34;;;;;;;5.72;3.15;;;23.60;99.90;;;;;;5076500;28;20412;-81
2021/08/04 11:45:09;;;;;;;6.28;3.28;;;23.70;99.90;;;;;;5052563;28;20431;-80
2021/08/04 11:47:35;;;;;;;3.07;2.73;;;23.60;99.90;;;;;;5053004;28;20370;-79
2021/08/04 11:50:05;;;;;;;3.87;2.70;;;23.90;99.90;;;;;;5060188;28;20446;-78
2021/08/04 11:52:32;;;;;;;4.17;2.90;;;24.20;99.90;;;;;;5078146;28;20752;-80
2021/08/04 11:54:59;;;;;;;4.80;2.83;;;24.30;99.90;;;;;;5065033;28;20393;-80
2021/08/04 11:57:25;;;;;;;6.55;3.35;;;23.80;99.90;;;;;;5074431;28;20890;-79
2021/08/04 11:59:56;;;;;;;7.53;3.17;;;23.30;99.90;;;;;;5080127;28;20398;-79
2021/08/04 12:02:23;;;;;;;3.08;2.78;;;23.00;99.90;;;;;;5079005;28;20743;-80
2021/08/04 12:04:54;;;;;;;11.60;3.15;;;23.20;99.90;;;;;;5065995;28;20383;-77
2021/08/04 12:07:26;;;;;;;4.50;2.70;;;23.30;99.90;;;;;;5076812;28;20416;-77
2021/08/04 12:09:53;;;;;;;5.15;2.75;;;23.30;99.90;;;;;;5067538;28;20412;-80
2021/08/04 12:12:24;;;;;;;5.90;3.17;;;23.30;99.90;;;;;;5107376;28;20442;-80
2021/08/04 12:14:51;;;;;;;5.25;2.75;;;23.00;99.90;;;;;;5096427;28;20414;-79
2021/08/04 12:17:21;;;;;;;3.45;3.15;;;22.80;99.90;;;;;;5087922;28;20385;-79
2021/08/04 12:19:48;;;;;;;8.63;3.20;;;22.60;99.90;;;;;;5091463;28;20400;-78
2021/08/04 12:22:20;;;;;;;3.63;2.88;;;22.70;99.90;;;;;;5090979;28;20865;-78
2021/08/04 12:24:53;;;;;;;4.70;3.03;;;22.60;99.90;;;;;;5095565;28;20385;-81
2021/08/04 12:27:50;;;;;;;5.93;3.10;;;22.60;99.90;;;;;;5099588;28;20435;-79
2021/08/04 12:30:22;;;;;;;6.78;3.15;;;22.70;99.90;;;;;;5079303;28;20383;-80
2021/08/04 12:32:57;;;;;;;6.75;3.00;;;22.50;99.90;;;;;;5081515;28;20378;-79
2021/08/04 12:35:35;;;;;;;62.17;8.27;;;22.50;99.90;;;;;;5081525;28;20729;-81
2021/08/04 12:38:04;;;;;;;7.00;3.10;;;22.60;99.90;;;;;;5081658;28;20753;-79
2021/08/04 12:40:29;;;;;;;4.88;2.60;;;22.50;99.90;;;;;;5080754;28;20449;-81
2021/08/04 12:42:57;;;;;;;4.77;2.40;;;22.60;99.90;;;;;;5097830;28;20915;-80
2021/08/04 12:45:24;;;;;;;2.80;2.40;;;22.60;99.90;;;;;;5091850;28;20399;-81
2021/08/04 12:47:59;;;;;;;3.80;2.47;;;22.80;99.90;;;;;;5089714;28;20369;-82
2021/08/04 12:50:46;;;;;;;3.85;2.25;;;23.00;99.90;;;;;;5084863;28;21185;-79
2021/08/04 12:53:24;;;;;;;10.95;2.78;;;23.30;99.90;;;;;;5059589;28;20397;-79
2021/08/04 12:56:05;;;;;;;4.43;2.50;;;23.60;99.90;;;;;;5074070;28;20789;-80